logo dgac
Lunes 20 de Mayo del 2019
Buscar por aerodromo o helipuerto
Ingrese nombre de aeródromo, localidad o designador OACI:
METAR del 20-05-2019 a las 13:00 UTC
METAR SCGZ 201300Z 25018KT 9999 -SHRA SCT033 SCT040 04/01 Q1002
Viento: dirección 250 grados, velocidad 18 nudos
Visibilidad: 10 km o más
Débil ChubascosLluvia
Nubes: Nubosidad parcial a 3300 pies sobre el nivel del aeródromo
Nubes: Nubosidad parcial a 4000 pies sobre el nivel del aeródromo
Temperatura: 4 °C
Rocío: 1 °C
Humedad_relativa: 81%
Presión: 1002 hPa
METAR del 20-05-2019 a las 13:00 UTC
METAR SCGZ 201300Z 25018KT 9999 -SHRA SCT033 SCT040 04/01 Q1002
Viento: dirección 250 grados, velocidad 18 nudos
Visibilidad: 10 km o más
Débil ChubascosLluvia
Nubes: Nubosidad parcial a 3300 pies sobre el nivel del aeródromo
Nubes: Nubosidad parcial a 4000 pies sobre el nivel del aeródromo
Temperatura: 4 °C
Rocío: 1 °C
Humedad_relativa: 81%
Presión: 1002 hPa
METAR del 20-05-2019 a las 12:00 UTC
METAR SCGZ 201200Z 24015KT 9999 -SHRA SCT033 BKN040 04/01 Q1001
Viento: dirección 240 grados, velocidad 15 nudos
Visibilidad: 10 km o más
Débil ChubascosLluvia
Nubes: Nubosidad parcial a 3300 pies sobre el nivel del aeródromo
Nubes: Nublado a 4000 pies sobre el nivel del aeródromo
Temperatura: 4 °C
Rocío: 1 °C
Humedad_relativa: 81%
Presión: 1001 hPa
METAR del 19-05-2019 a las 14:00 UTC
METAR SCGZ 191400Z 25014KT 9999 -SHRASN FEW020 SCT036 03/M01 Q1003 RESHRA
Viento: dirección 250 grados, velocidad 14 nudos
Visibilidad: 10 km o más
Débil ChubascosAgua-Nieve
Nubes: Escasa nubosidad a 2000 pies sobre el nivel del aeródromo
Nubes: Nubosidad parcial a 3600 pies sobre el nivel del aeródromo
Temperatura: 3 °C
Rocío: -1 °C
Humedad_relativa: 75%
Presión: 1003 hPa
Se observó recientemente ChubascosLluvia
METAR del 19-05-2019 a las 14:00 UTC
METAR SCGZ 191400Z 25014KT 9999 -SHRASN FEW020 SCT036 03/M01 Q1003 RESHRA
Viento: dirección 250 grados, velocidad 14 nudos
Visibilidad: 10 km o más
Débil ChubascosAgua-Nieve
Nubes: Escasa nubosidad a 2000 pies sobre el nivel del aeródromo
Nubes: Nubosidad parcial a 3600 pies sobre el nivel del aeródromo
Temperatura: 3 °C
Rocío: -1 °C
Humedad_relativa: 75%
Presión: 1003 hPa
Se observó recientemente ChubascosLluvia